Terminal Aerodrome Forecast
Issued by NWS Louisville, KY

Home | Current Version | Previous Version | Text Only | Print | Product List | Glossary On
Versions: 1 2 3 4 5 6 7 8 9 10 11 12 13 14 15
100
FTUS43 KLMK 111759
TAFSDF
TAF
KSDF 111759Z 1118/1224 23008KT P6SM BKN100
     FM120300 26010KT P6SM BKN040
     FM120800 30013G22KT P6SM VCSH OVC025
     FM121400 31015G23KT P6SM BKN050=

USA.gov is the U.S. government's official web portal to all federal, state and local government web resources and services.